Time;durP1;ratioP1;P1;durP2;ratioP2;P2;SDS_P1;SDS_P2;PMS_P1;PMS_P2;Temp;Humidity;BMP_temperature;BMP_pressure;BME280_temperature;BME280_humidity;BME280_pressure;Samples;Min_cycle;Max_cycle;Signal;HPM_P1;HPM_P2
2022/08/23 00:02:01;;;;;;;4.72;1.40;;;;;;;;;;5036119;28;20095;-64
2022/08/23 00:04:30;;;;;;;4.57;1.40;;;;;;;;;;5036778;28;20042;-65
2022/08/23 00:06:58;;;;;;;6.47;1.30;;;;;;;;;;5036299;28;20211;-67
2022/08/23 00:09:25;;;;;;;6.93;1.40;;;;;;;;;;5035773;28;20398;-70
2022/08/23 00:12:02;;;;;;;6.65;1.45;;;;;;;;;;5034756;28;20050;-74
2022/08/23 00:14:31;;;;;;;3.38;1.30;;;;;;;;;;5034648;28;20497;-67
2022/08/23 00:16:57;;;;;;;5.35;1.20;;;;;;;;;;5034633;28;20142;-66
2022/08/23 00:19:25;;;;;;;3.85;1.10;;;;;;;;;;5034549;28;20052;-67
2022/08/23 00:21:53;;;;;;;4.53;1.50;;;;;;;;;;5034662;28;20473;-66
2022/08/23 00:24:21;;;;;;;4.20;1.30;;;;;;;;;;5034493;28;20057;-65
2022/08/23 00:26:56;;;;;;;3.55;1.20;;;;;;;;;;5034415;28;20053;-64
2022/08/23 00:29:26;;;;;;;4.57;1.48;;;;;;;;;;5034590;28;20041;-69
2022/08/23 00:31:52;;;;;;;5.68;1.38;;;;;;;;;;5030939;22;20522;-69
2022/08/23 00:34:20;;;;;;;4.07;1.58;;;;;;;;;;4996149;28;20208;-68
2022/08/23 00:36:48;;;;;;;3.40;1.40;;;;;;;;;;5014087;28;20045;-68
2022/08/23 00:39:15;;;;;;;5.38;1.38;;;;;;;;;;5013326;28;20046;-69
2022/08/23 00:41:42;;;;;;;8.48;1.88;;;;;;;;;;4994252;28;20051;-68
2022/08/23 00:50:06;;;;;;;6.35;2.00;;;;;;;;;;5014459;28;20068;-68
2022/08/23 00:52:51;;;;;;;4.55;1.92;;;;;;;;;;5014300;28;20061;-69
2022/08/23 00:55:19;;;;;;;4.97;2.10;;;;;;;;;;5012368;28;20053;-70
2022/08/23 00:57:46;;;;;;;6.70;2.60;;;;;;;;;;5012630;28;20505;-70
2022/08/23 01:00:12;;;;;;;6.95;2.50;;;;;;;;;;5012199;28;20078;-70
2022/08/23 01:02:40;;;;;;;4.63;2.53;;;;;;;;;;5001732;28;20044;-71
2022/08/23 01:05:07;;;;;;;3.65;2.20;;;;;;;;;;5013065;28;20123;-70
2022/08/23 01:07:54;;;;;;;6.53;3.22;;;;;;;;;;5013269;28;20042;-67
2022/08/23 01:10:27;;;;;;;5.60;3.28;;;;;;;;;;5012263;28;20046;-68
2022/08/23 01:12:59;;;;;;;8.10;3.38;;;;;;;;;;5015360;28;20077;-68
2022/08/23 01:15:31;;;;;;;12.25;4.63;;;;;;;;;;5014590;28;20547;-70
2022/08/23 01:18:03;;;;;;;8.85;5.47;;;;;;;;;;5015443;28;20054;-69
2022/08/23 01:20:59;;;;;;;14.13;5.10;;;;;;;;;;5016464;28;20506;-68
2022/08/23 01:23:40;;;;;;;8.57;4.43;;;;;;;;;;5010923;28;20050;-68
2022/08/23 01:26:08;;;;;;;6.82;3.83;;;;;;;;;;5015501;28;20053;-69
2022/08/23 01:28:34;;;;;;;8.60;3.08;;;;;;;;;;5013619;28;20042;-70
2022/08/23 01:31:01;;;;;;;8.48;2.80;;;;;;;;;;5009003;28;20054;-69
2022/08/23 01:33:27;;;;;;;4.63;2.47;;;;;;;;;;4993332;28;20160;-69
2022/08/23 01:35:55;;;;;;;3.83;1.95;;;;;;;;;;4993778;28;20053;-67
2022/08/23 01:38:23;;;;;;;6.20;2.00;;;;;;;;;;4993455;28;20062;-68
2022/08/23 01:40:50;;;;;;;9.38;2.20;;;;;;;;;;4993970;28;20077;-68
2022/08/23 01:43:18;;;;;;;7.80;2.33;;;;;;;;;;4993299;28;20144;-67
2022/08/23 01:45:45;;;;;;;3.95;1.95;;;;;;;;;;4992247;28;20125;-68
2022/08/23 01:48:13;;;;;;;3.70;1.90;;;;;;;;;;4992978;28;20073;-68
2022/08/23 01:50:39;;;;;;;7.13;2.00;;;;;;;;;;4994404;28;20052;-69
2022/08/23 01:53:05;;;;;;;6.80;1.77;;;;;;;;;;5009607;28;20592;-68
2022/08/23 01:55:32;;;;;;;2.90;1.60;;;;;;;;;;4991733;28;20060;-69
2022/08/23 01:58:01;;;;;;;6.07;2.10;;;;;;;;;;4991842;28;20495;-70
2022/08/23 02:00:36;;;;;;;5.45;2.15;;;;;;;;;;4992226;28;20065;-68
2022/08/23 02:03:04;;;;;;;4.53;1.63;;;;;;;;;;4991799;28;20058;-69
2022/08/23 02:05:31;;;;;;;3.33;1.90;;;;;;;;;;4992109;28;20046;-70
2022/08/23 02:08:59;;;;;;;5.65;2.15;;;;;;;;;;4991719;28;20563;-67
2022/08/23 02:10:44;;;;;;;7.03;2.00;;;;;;;;;;4991567;28;20377;-68
2022/08/23 02:13:10;;;;;;;6.45;1.90;;;;;;;;;;4991247;28;20054;-74
2022/08/23 02:15:38;;;;;;;4.68;1.95;;;;;;;;;;5010604;28;20060;-73
2022/08/23 02:18:05;;;;;;;4.25;1.85;;;;;;;;;;5002314;28;20060;-74
2022/08/23 02:20:31;;;;;;;5.38;1.77;;;;;;;;;;5003858;28;20050;-74
2022/08/23 02:22:56;;;;;;;5.40;1.90;;;;;;;;;;5012137;28;20057;-73
2022/08/23 02:25:22;;;;;;;4.80;2.00;;;;;;;;;;4997333;28;20054;-73
2022/08/23 02:27:48;;;;;;;4.85;1.85;;;;;;;;;;4992679;28;20117;-74
2022/08/23 02:30:14;;;;;;;6.65;1.60;;;;;;;;;;4991861;28;20046;-73
2022/08/23 02:32:41;;;;;;;4.38;1.70;;;;;;;;;;5003875;28;20096;-73
2022/08/23 02:35:07;;;;;;;3.72;1.92;;;;;;;;;;5011043;28;20407;-73
2022/08/23 02:37:34;;;;;;;7.32;2.00;;;;;;;;;;5011548;28;20050;-72
2022/08/23 02:40:00;;;;;;;4.85;2.10;;;;;;;;;;5009736;28;20533;-76
2022/08/23 02:42:26;;;;;;;7.10;2.03;;;;;;;;;;5011093;28;20046;-73
2022/08/23 02:44:51;;;;;;;3.67;2.00;;;;;;;;;;5001954;28;20078;-74
2022/08/23 02:47:18;;;;;;;6.68;2.47;;;;;;;;;;4991566;28;20046;-75
2022/08/23 02:49:44;;;;;;;7.47;2.90;;;;;;;;;;4991188;28;20053;-73
2022/08/23 02:52:10;;;;;;;8.40;2.97;;;;;;;;;;4990360;28;20078;-73
2022/08/23 02:54:36;;;;;;;7.68;2.90;;;;;;;;;;4990243;28;20069;-73
2022/08/23 02:57:03;;;;;;;10.30;3.38;;;;;;;;;;4991181;28;20046;-74
2022/08/23 02:59:29;;;;;;;4.88;2.85;;;;;;;;;;4991349;28;20043;-73
2022/08/23 03:01:55;;;;;;;6.53;2.70;;;;;;;;;;4991742;28;20054;-72
2022/08/23 03:04:21;;;;;;;6.40;3.15;;;;;;;;;;4992062;28;20130;-73
2022/08/23 03:06:47;;;;;;;6.47;3.08;;;;;;;;;;4993635;28;20049;-72
2022/08/23 03:09:13;;;;;;;10.02;3.13;;;;;;;;;;5010010;28;20081;-72
2022/08/23 03:11:43;;;;;;;6.15;2.80;;;;;;;;;;4992019;28;20128;-73
2022/08/23 03:14:09;;;;;;;4.70;2.78;;;;;;;;;;5010095;28;20053;-72
2022/08/23 03:16:35;;;;;;;6.53;2.85;;;;;;;;;;4993169;28;20054;-73
2022/08/23 03:19:01;;;;;;;5.70;3.03;;;;;;;;;;5009200;28;20399;-73
2022/08/23 03:21:27;;;;;;;5.50;2.88;;;;;;;;;;5009729;28;20088;-76
2022/08/23 03:23:53;;;;;;;6.57;2.63;;;;;;;;;;5010191;28;20511;-73
2022/08/23 03:26:18;;;;;;;5.38;2.53;;;;;;;;;;5012135;28;20046;-70
2022/08/23 03:28:45;;;;;;;8.85;2.90;;;;;;;;;;5013852;28;20068;-73
2022/08/23 03:31:12;;;;;;;6.20;2.60;;;;;;;;;;5011155;28;20129;-72
2022/08/23 03:33:39;;;;;;;8.05;2.38;;;;;;;;;;5011627;28;20046;-73
2022/08/23 03:36:07;;;;;;;5.10;2.17;;;;;;;;;;5000379;28;20123;-72
2022/08/23 03:38:34;;;;;;;7.65;1.95;;;;;;;;;;4990452;28;20051;-74
2022/08/23 03:41:01;;;;;;;7.15;2.40;;;;;;;;;;4990181;28;20050;-73
2022/08/23 03:43:27;;;;;;;6.35;2.13;;;;;;;;;;5007892;28;20487;-73
2022/08/23 03:45:53;;;;;;;5.93;2.00;;;;;;;;;;5009873;28;20060;-73
2022/08/23 03:48:18;;;;;;;5.28;1.90;;;;;;;;;;5010761;28;20109;-71
2022/08/23 03:50:44;;;;;;;5.85;2.33;;;;;;;;;;5009532;28;20096;-72
2022/08/23 03:53:11;;;;;;;8.52;2.33;;;;;;;;;;4998883;28;20046;-74
2022/08/23 03:55:39;;;;;;;7.38;2.17;;;;;;;;;;4989735;28;20046;-72
2022/08/23 03:58:04;;;;;;;4.28;2.00;;;;;;;;;;4991220;28;20472;-72
2022/08/23 04:00:30;;;;;;;4.28;2.38;;;;;;;;;;4991222;28;20105;-73
2022/08/23 04:02:56;;;;;;;4.93;2.17;;;;;;;;;;4990748;28;20061;-72
2022/08/23 04:05:22;;;;;;;7.15;2.30;;;;;;;;;;4990170;28;20050;-73
2022/08/23 04:07:48;;;;;;;4.45;2.30;;;;;;;;;;4992187;28;20050;-72
2022/08/23 04:10:14;;;;;;;6.30;2.30;;;;;;;;;;4998683;28;20054;-73
2022/08/23 04:12:41;;;;;;;7.35;2.03;;;;;;;;;;4991799;28;20051;-73
2022/08/23 04:15:08;;;;;;;5.90;2.45;;;;;;;;;;4990888;28;20504;-73
2022/08/23 04:17:35;;;;;;;7.95;2.67;;;;;;;;;;4990677;28;20049;-73
2022/08/23 04:20:03;;;;;;;6.03;2.20;;;;;;;;;;4991802;28;20109;-71
2022/08/23 04:22:29;;;;;;;6.05;2.35;;;;;;;;;;4992504;28;20496;-74
2022/08/23 04:24:56;;;;;;;6.30;2.67;;;;;;;;;;4992336;28;20058;-74
2022/08/23 04:27:22;;;;;;;4.45;2.40;;;;;;;;;;5005059;28;20149;-72
2022/08/23 04:29:49;;;;;;;6.32;2.25;;;;;;;;;;5011074;28;20057;-72
2022/08/23 04:32:15;;;;;;;5.47;2.30;;;;;;;;;;5010151;28;20054;-74
2022/08/23 04:34:41;;;;;;;5.60;2.28;;;;;;;;;;5010167;28;20073;-73
2022/08/23 04:37:08;;;;;;;5.63;2.13;;;;;;;;;;5011240;28;20527;-74
2022/08/23 04:42:16;;;;;;;7.05;2.70;;;;;;;;;;4996470;28;20085;-75
2022/08/23 04:42:22;;;;;;;4.18;2.22;;;;;;;;;;5013759;28;20046;-72
2022/08/23 04:44:48;;;;;;;6.30;2.17;;;;;;;;;;4997071;28;20483;-73
2022/08/23 04:47:14;;;;;;;8.27;2.22;;;;;;;;;;4994613;28;20059;-73
2022/08/23 04:49:40;;;;;;;5.55;2.25;;;;;;;;;;4975442;28;20073;-73
2022/08/23 04:52:06;;;;;;;8.18;2.47;;;;;;;;;;5002442;28;20458;-73
2022/08/23 04:54:32;;;;;;;6.03;2.88;;;;;;;;;;5012770;28;20050;-74
2022/08/23 04:56:58;;;;;;;9.18;2.58;;;;;;;;;;5013215;28;20184;-74
2022/08/23 04:59:23;;;;;;;6.22;2.65;;;;;;;;;;4996516;28;20073;-74
2022/08/23 05:01:50;;;;;;;4.93;2.70;;;;;;;;;;5012357;28;20050;-71
2022/08/23 05:04:17;;;;;;;6.13;2.47;;;;;;;;;;5013044;28;20081;-73
2022/08/23 05:06:44;;;;;;;8.88;3.20;;;;;;;;;;5012766;28;20069;-72
2022/08/23 05:09:10;;;;;;;7.35;2.80;;;;;;;;;;5012076;28;20132;-72
2022/08/23 05:11:36;;;;;;;10.32;2.85;;;;;;;;;;4994955;28;20046;-74
2022/08/23 05:14:03;;;;;;;8.98;3.05;;;;;;;;;;4975965;28;20062;-72
2022/08/23 05:16:29;;;;;;;11.25;3.08;;;;;;;;;;4993077;28;20072;-73
2022/08/23 05:18:55;;;;;;;7.95;2.75;;;;;;;;;;4989117;28;20419;-72
2022/08/23 05:21:23;;;;;;;5.72;2.50;;;;;;;;;;4993593;28;20051;-72
2022/08/23 05:23:51;;;;;;;6.53;2.65;;;;;;;;;;4992336;28;20507;-73
2022/08/23 05:26:18;;;;;;;6.38;2.30;;;;;;;;;;4992104;28;20046;-72
2022/08/23 05:28:46;;;;;;;8.38;2.33;;;;;;;;;;4992536;28;20082;-73
2022/08/23 05:31:18;;;;;;;10.43;3.00;;;;;;;;;;4992846;28;20050;-72
2022/08/23 05:33:45;;;;;;;12.57;3.22;;;;;;;;;;4976301;28;20137;-73
2022/08/23 05:36:13;;;;;;;4.90;2.67;;;;;;;;;;5009449;28;21233;-73
2022/08/23 05:38:40;;;;;;;6.88;2.63;;;;;;;;;;4995779;28;20057;-73
2022/08/23 05:41:07;;;;;;;6.60;2.80;;;;;;;;;;4995092;28;20054;-74
2022/08/23 05:43:33;;;;;;;5.80;2.20;;;;;;;;;;4976884;28;20061;-74
2022/08/23 05:46:09;;;;;;;6.13;2.55;;;;;;;;;;4994511;28;20054;-74
2022/08/23 05:48:36;;;;;;;4.53;2.15;;;;;;;;;;4994173;28;20046;-73
2022/08/23 05:51:19;;;;;;;5.63;2.05;;;;;;;;;;4993008;28;20049;-75
2022/08/23 05:53:46;;;;;;;8.60;2.40;;;;;;;;;;4992596;28;20180;-72
2022/08/23 05:56:21;;;;;;;6.53;2.20;;;;;;;;;;5005015;28;20057;-74
2022/08/23 05:58:49;;;;;;;5.78;2.40;;;;;;;;;;5011826;28;20045;-72
2022/08/23 06:01:19;;;;;;;7.25;2.30;;;;;;;;;;5011488;28;20112;-74
2022/08/23 06:03:45;;;;;;;4.85;2.38;;;;;;;;;;5012111;28;20407;-75
2022/08/23 06:06:13;;;;;;;7.35;2.42;;;;;;;;;;5011957;28;20096;-74
2022/08/23 06:08:39;;;;;;;7.57;2.20;;;;;;;;;;5010698;28;20103;-72
2022/08/23 06:11:10;;;;;;;6.05;2.45;;;;;;;;;;5011115;28;20050;-74
2022/08/23 06:13:42;;;;;;;8.48;3.00;;;;;;;;;;5011443;28;20044;-74
2022/08/23 06:16:09;;;;;;;6.30;2.85;;;;;;;;;;4993992;28;20064;-74
2022/08/23 06:18:35;;;;;;;8.10;2.58;;;;;;;;;;5012264;28;20042;-73
2022/08/23 06:21:05;;;;;;;6.18;2.92;;;;;;;;;;5011183;28;20049;-73
2022/08/23 06:23:31;;;;;;;7.38;2.70;;;;;;;;;;5011011;28;20046;-73
2022/08/23 06:25:58;;;;;;;11.30;2.97;;;;;;;;;;5003088;28;20042;-73
2022/08/23 06:28:24;;;;;;;13.98;3.17;;;;;;;;;;4993957;28;20050;-73
2022/08/23 06:30:56;;;;;;;9.30;2.72;;;;;;;;;;4990251;28;20057;-73
2022/08/23 06:33:22;;;;;;;8.20;3.13;;;;;;;;;;4992118;28;20515;-74
2022/08/23 06:35:49;;;;;;;8.57;2.92;;;;;;;;;;4991736;28;20062;-73
2022/08/23 06:38:16;;;;;;;10.65;3.50;;;;;;;;;;4992974;28;20073;-75
2022/08/23 06:40:42;;;;;;;7.55;3.60;;;;;;;;;;4990370;28;20046;-73
2022/08/23 06:43:08;;;;;;;11.13;3.90;;;;;;;;;;4974854;28;20050;-73
2022/08/23 06:45:34;;;;;;;13.75;4.82;;;;;;;;;;4991312;28;20056;-73
2022/08/23 06:48:00;;;;;;;12.68;4.38;;;;;;;;;;4992622;28;20137;-73
2022/08/23 06:50:26;;;;;;;8.88;3.38;;;;;;;;;;5006159;28;20050;-74
2022/08/23 06:52:52;;;;;;;12.07;3.35;;;;;;;;;;5014083;28;20487;-75
2022/08/23 06:55:18;;;;;;;10.27;2.80;;;;;;;;;;5011493;28;20072;-72
2022/08/23 06:57:44;;;;;;;8.13;2.72;;;;;;;;;;5013223;28;20108;-74
2022/08/23 07:00:11;;;;;;;5.35;2.80;;;;;;;;;;5011048;28;20057;-72
2022/08/23 07:02:37;;;;;;;8.43;3.30;;;;;;;;;;5008488;28;20476;-75
2022/08/23 07:05:04;;;;;;;7.05;2.95;;;;;;;;;;4994522;28;20119;-75
2022/08/23 07:07:30;;;;;;;12.32;3.30;;;;;;;;;;4997856;28;20053;-73
2022/08/23 07:09:56;;;;;;;10.27;4.47;;;;;;;;;;4995930;28;20054;-73
2022/08/23 07:12:22;;;;;;;10.68;4.10;;;;;;;;;;4993863;28;20399;-73
2022/08/23 07:14:48;;;;;;;16.55;4.00;;;;;;;;;;4993445;28;20085;-74
2022/08/23 07:17:14;;;;;;;10.48;4.35;;;;;;;;;;4994273;28;20072;-73
2022/08/23 07:19:43;;;;;;;10.05;3.90;;;;;;;;;;4991667;28;20050;-71
2022/08/23 07:22:09;;;;;;;10.57;3.35;;;;;;;;;;4993635;28;20551;-74
2022/08/23 07:24:36;;;;;;;8.23;3.15;;;;;;;;;;4999391;28;20046;-73
2022/08/23 07:27:05;;;;;;;9.48;3.17;;;;;;;;;;5013773;28;20069;-74
2022/08/23 07:29:32;;;;;;;9.98;2.88;;;;;;;;;;4995591;28;20050;-75
2022/08/23 07:31:58;;;;;;;7.88;2.63;;;;;;;;;;4993471;28;20062;-73
2022/08/23 07:34:25;;;;;;;9.52;3.25;;;;;;;;;;4992859;28;20053;-73
2022/08/23 07:36:52;;;;;;;8.05;2.88;;;;;;;;;;5011733;28;20054;-75
2022/08/23 07:39:19;;;;;;;9.32;2.80;;;;;;;;;;5011127;28;20046;-76
2022/08/23 07:41:45;;;;;;;10.82;3.33;;;;;;;;;;5010511;28;20519;-74
2022/08/23 07:44:13;;;;;;;7.10;2.42;;;;;;;;;;5011854;28;20088;-75
2022/08/23 07:46:41;;;;;;;12.30;4.43;;;;;;;;;;5011295;28;20069;-74
2022/08/23 07:49:09;;;;;;;10.40;2.80;;;;;;;;;;5011122;28;20041;-77
2022/08/23 07:51:36;;;;;;;9.20;3.00;;;;;;;;;;4997512;28;20047;-75
2022/08/23 07:54:05;;;;;;;12.05;2.85;;;;;;;;;;4992457;28;20047;-75
2022/08/23 07:56:33;;;;;;;5.53;2.42;;;;;;;;;;5004443;28;20542;-73
2022/08/23 07:59:00;;;;;;;10.82;2.63;;;;;;;;;;5011687;28;20046;-75
2022/08/23 08:01:28;;;;;;;13.80;2.50;;;;;;;;;;5010968;28;20069;-74
2022/08/23 08:03:56;;;;;;;5.53;2.58;;;;;;;;;;5011824;28;20057;-74
2022/08/23 08:06:24;;;;;;;6.40;2.33;;;;;;;;;;5012245;28;20050;-74
2022/08/23 08:08:51;;;;;;;7.13;2.47;;;;;;;;;;5012362;28;20050;-73
2022/08/23 08:11:20;;;;;;;7.65;2.50;;;;;;;;;;5011651;28;20051;-72
2022/08/23 08:13:48;;;;;;;9.57;2.50;;;;;;;;;;5018757;28;20054;-74
2022/08/23 08:16:33;;;;;;;8.85;2.65;;;;;;;;;;5020526;28;20054;-75
2022/08/23 08:19:02;;;;;;;9.05;2.47;;;;;;;;;;5019770;28;20073;-73
2022/08/23 08:21:28;;;;;;;9.07;2.42;;;;;;;;;;5020310;28;20550;-76
2022/08/23 08:23:56;;;;;;;8.57;2.55;;;;;;;;;;5017619;28;20121;-74
2022/08/23 08:26:23;;;;;;;7.57;2.53;;;;;;;;;;5014592;28;20100;-75
2022/08/23 08:28:49;;;;;;;7.15;2.78;;;;;;;;;;4998088;28;20050;-72
2022/08/23 08:31:15;;;;;;;5.20;2.60;;;;;;;;;;5009267;28;20145;-76
2022/08/23 08:33:41;;;;;;;13.95;2.65;;;;;;;;;;4994969;28;20474;-77
2022/08/23 08:36:08;;;;;;;7.28;2.88;;;;;;;;;;4995129;28;20142;-73
2022/08/23 08:38:38;;;;;;;5.60;2.63;;;;;;;;;;4995532;28;20132;-74
2022/08/23 08:41:10;;;;;;;9.13;2.72;;;;;;;;;;5011259;28;20057;-75
2022/08/23 08:43:55;;;;;;;10.85;2.85;;;;;;;;;;4993762;28;20046;-75
2022/08/23 08:46:44;;;;;;;10.38;2.92;;;;;;;;;;4993518;28;20054;-73
2022/08/23 08:49:15;;;;;;;6.50;2.70;;;;;;;;;;4994570;28;20480;-74
2022/08/23 08:51:58;;;;;;;10.82;2.88;;;;;;;;;;4994954;28;20385;-75
2022/08/23 08:54:26;;;;;;;6.60;3.03;;;;;;;;;;4993632;28;20463;-73
2022/08/23 08:56:56;;;;;;;8.85;2.30;;;;;;;;;;4994106;28;20495;-73
2022/08/23 08:59:46;;;;;;;7.18;2.42;;;;;;;;;;4994040;28;20046;-74
2022/08/23 09:02:17;;;;;;;7.47;2.30;;;;;;;;;;4993578;28;20078;-73
2022/08/23 09:04:44;;;;;;;6.88;2.70;;;;;;;;;;4993553;28;20081;-75
2022/08/23 09:07:33;;;;;;;6.13;2.55;;;;;;;;;;4993806;28;20042;-75
2022/08/23 09:10:24;;;;;;;8.75;2.35;;;;;;;;;;4992299;28;20096;-72
2022/08/23 09:13:02;;;;;;;8.55;2.22;;;;;;;;;;4993779;28;20050;-75
2022/08/23 09:15:47;;;;;;;11.02;2.70;;;;;;;;;;4994559;28;20062;-73
2022/08/23 09:18:15;;;;;;;8.43;2.38;;;;;;;;;;4992723;28;20488;-74
2022/08/23 09:20:44;;;;;;;8.13;2.08;;;;;;;;;;4994187;28;20049;-75
2022/08/23 09:23:16;;;;;;;9.07;2.15;;;;;;;;;;4994430;28;20046;-74
2022/08/23 09:25:56;;;;;;;4.03;1.90;;;;;;;;;;4993475;28;20421;-74
2022/08/23 09:28:22;;;;;;;5.78;2.03;;;;;;;;;;4992819;28;20510;-73
2022/08/23 09:30:54;;;;;;;3.33;1.70;;;;;;;;;;4992684;28;20055;-74
2022/08/23 09:33:41;;;;;;;4.43;1.80;;;;;;;;;;5005235;28;20403;-76
2022/08/23 09:36:30;;;;;;;3.78;1.50;;;;;;;;;;4997782;28;20057;-75
2022/08/23 09:39:00;;;;;;;3.75;1.45;;;;;;;;;;5017346;28;20077;-74
2022/08/23 09:41:40;;;;;;;5.80;1.45;;;;;;;;;;5031467;28;20115;-74
2022/08/23 09:44:12;;;;;;;3.97;1.52;;;;;;;;;;5032353;28;20060;-73
2022/08/23 09:46:41;;;;;;;2.53;1.60;;;;;;;;;;5032519;28;20128;-74
2022/08/23 09:49:26;;;;;;;4.28;1.67;;;;;;;;;;5028255;28;20045;-74
2022/08/23 09:51:55;;;;;;;5.20;1.75;;;;;;;;;;4997950;28;20053;-74
2022/08/23 09:54:24;;;;;;;3.13;1.33;;;;;;;;;;5011758;28;20054;-76
2022/08/23 09:56:57;;;;;;;5.85;1.55;;;;;;;;;;5012377;28;20080;-72
2022/08/23 09:59:25;;;;;;;1.90;1.30;;;;;;;;;;5012453;28;20080;-73
2022/08/23 10:01:56;;;;;;;4.95;1.60;;;;;;;;;;5012828;28;20566;-74
2022/08/23 10:04:22;;;;;;;4.32;1.90;;;;;;;;;;5013835;28;20046;-73
2022/08/23 10:06:48;;;;;;;4.35;1.30;;;;;;;;;;5004390;28;20050;-73
2022/08/23 10:09:30;;;;;;;3.88;1.65;;;;;;;;;;4992547;28;20050;-73
2022/08/23 10:11:58;;;;;;;5.53;1.40;;;;;;;;;;4991990;28;20133;-74
2022/08/23 10:14:26;;;;;;;5.82;1.90;;;;;;;;;;4991436;28;20046;-74
2022/08/23 10:17:14;;;;;;;3.00;1.48;;;;;;;;;;5012044;28;20077;-73
2022/08/23 10:19:50;;;;;;;2.80;1.70;;;;;;;;;;5011410;28;20048;-73
2022/08/23 10:22:19;;;;;;;3.45;1.40;;;;;;;;;;5011426;28;20058;-76
2022/08/23 10:25:30;;;;;;;6.43;1.60;;;;;;;;;;5009536;28;20054;-74
2022/08/23 10:31:24;;;;;;;5.90;1.40;;;;;;;;;;5007976;28;20058;-74
2022/08/23 10:34:19;;;;;;;6.63;1.33;;;;;;;;;;5013656;28;20053;-74
2022/08/23 10:37:07;;;;;;;4.13;1.33;;;;;;;;;;5015877;28;20140;-76
2022/08/23 10:39:42;;;;;;;3.03;1.40;;;;;;;;;;5015338;28;20056;-74
2022/08/23 10:42:32;;;;;;;2.10;1.02;;;;;;;;;;4992568;28;20102;-74
2022/08/23 10:45:03;;;;;;;3.83;1.60;;;;;;;;;;5000983;28;20368;-75
2022/08/23 10:47:37;;;;;;;3.10;1.65;;;;;;;;;;5011131;28;20448;-72
2022/08/23 10:50:12;;;;;;;6.20;1.83;;;;;;;;;;5010817;28;20045;-73
2022/08/23 10:52:54;;;;;;;3.97;1.60;;;;;;;;;;5011234;28;20045;-73
2022/08/23 10:55:43;;;;;;;2.97;1.10;;;;;;;;;;5010429;28;20049;-74
2022/08/23 10:58:15;;;;;;;2.60;1.30;;;;;;;;;;5011114;28;20050;-74
2022/08/23 11:00:42;;;;;;;2.85;1.15;;;;;;;;;;5011201;28;20058;-74
2022/08/23 11:03:24;;;;;;;5.85;1.40;;;;;;;;;;5011327;28;20053;-74
2022/08/23 11:06:24;;;;;;;3.83;1.40;;;;;;;;;;5011358;28;20132;-73
2022/08/23 11:09:30;;;;;;;2.47;1.30;;;;;;;;;;4993857;28;20087;-73
2022/08/23 11:12:19;;;;;;;4.40;1.30;;;;;;;;;;5011512;28;20471;-74
2022/08/23 11:14:57;;;;;;;2.30;1.17;;;;;;;;;;5002766;28;20046;-75
2022/08/23 11:17:33;;;;;;;3.03;1.30;;;;;;;;;;4991491;28;20547;-76
2022/08/23 11:20:03;;;;;;;4.32;1.20;;;;;;;;;;4991094;28;20050;-74
2022/08/23 11:22:33;;;;;;;2.92;1.30;;;;;;;;;;4990397;28;20057;-75
2022/08/23 11:25:15;;;;;;;2.53;1.00;;;;;;;;;;5010564;28;20081;-74
2022/08/23 11:27:42;;;;;;;2.70;1.30;;;;;;;;;;5011101;28;20577;-74
2022/08/23 11:30:33;;;;;;;5.13;1.00;;;;;;;;;;5012243;28;20080;-73
2022/08/23 11:33:14;;;;;;;3.15;1.17;;;;;;;;;;4997829;28;20504;-74
2022/08/23 11:36:15;;;;;;;2.40;1.00;;;;;;;;;;4996417;28;20078;-73
2022/08/23 11:38:47;;;;;;;2.83;1.30;;;;;;;;;;4994503;28;20050;-74
2022/08/23 11:41:18;;;;;;;6.43;1.10;;;;;;;;;;5010482;28;20050;-76
2022/08/23 11:43:55;;;;;;;3.42;1.17;;;;;;;;;;5011565;28;20046;-73
2022/08/23 11:46:21;;;;;;;4.45;1.30;;;;;;;;;;5011494;28;20046;-74
2022/08/23 11:48:53;;;;;;;4.00;1.25;;;;;;;;;;5006863;28;20466;-73
2022/08/23 11:51:44;;;;;;;2.67;1.00;;;;;;;;;;4994728;28;20050;-74
2022/08/23 11:54:44;;;;;;;5.25;1.40;;;;;;;;;;4978845;28;20053;-75
2022/08/23 11:57:54;;;;;;;2.72;1.20;;;;;;;;;;4996383;28;20046;-74
2022/08/23 12:00:26;;;;;;;3.22;0.93;;;;;;;;;;4959544;28;20153;-74
2022/08/23 12:03:00;;;;;;;1.73;1.30;;;;;;;;;;4997540;28;20050;-74
2022/08/23 12:05:49;;;;;;;3.60;1.42;;;;;;;;;;4998446;28;20575;-73
2022/08/23 12:08:36;;;;;;;7.70;1.52;;;;;;;;;;4983822;28;20057;-73
2022/08/23 12:11:09;;;;;;;2.30;1.20;;;;;;;;;;4994269;28;20057;-73
2022/08/23 12:13:46;;;;;;;1.70;1.00;;;;;;;;;;4995289;28;20058;-74
2022/08/23 12:16:12;;;;;;;8.02;1.65;;;;;;;;;;5003997;28;20475;-72
2022/08/23 12:18:43;;;;;;;3.05;1.20;;;;;;;;;;5015022;28;20081;-73
2022/08/23 12:21:19;;;;;;;2.03;1.00;;;;;;;;;;4996805;28;20045;-76
2022/08/23 12:23:48;;;;;;;4.43;1.55;;;;;;;;;;5012959;28;20050;-74
2022/08/23 12:26:48;;;;;;;3.47;1.20;;;;;;;;;;5014073;28;20049;-73
2022/08/23 12:29:31;;;;;;;8.32;1.30;;;;;;;;;;5017964;28;20148;-77
2022/08/23 12:32:34;;;;;;;4.25;1.02;;;;;;;;;;4999639;28;20050;-75
2022/08/23 12:35:21;;;;;;;3.05;1.05;;;;;;;;;;5013929;28;20132;-74
2022/08/23 12:38:02;;;;;;;4.78;1.50;;;;;;;;;;5014055;28;20050;-74
2022/08/23 12:40:39;;;;;;;5.95;1.30;;;;;;;;;;4999640;28;20100;-71
2022/08/23 12:43:15;;;;;;;4.00;0.90;;;;;;;;;;4994838;28;20441;-74
2022/08/23 12:45:48;;;;;;;4.30;1.00;;;;;;;;;;4994825;28;20056;-75
2022/08/23 12:48:19;;;;;;;4.07;1.20;;;;;;;;;;4994859;28;20050;-74
2022/08/23 12:50:56;;;;;;;4.50;1.23;;;;;;;;;;4994823;28;20054;-74
2022/08/23 12:53:35;;;;;;;4.88;1.40;;;;;;;;;;4995160;28;20125;-75
2022/08/23 12:56:14;;;;;;;6.32;1.10;;;;;;;;;;5011705;28;20180;-75
2022/08/23 12:58:47;;;;;;;4.45;1.20;;;;;;;;;;5014034;28;20058;-75
2022/08/23 13:01:20;;;;;;;4.80;1.23;;;;;;;;;;5014126;28;20058;-76
2022/08/23 13:03:49;;;;;;;;;;;;;;;;;;5014878;28;20399;-75
2022/08/23 13:06:22;;;;;;;3.92;1.13;;;;;;;;;;5015201;28;20012;-74
2022/08/23 13:09:03;;;;;;;4.32;1.23;;;;;;;;;;4997364;28;20050;-73
2022/08/23 13:11:32;;;;;;;4.35;1.20;;;;;;;;;;5014208;28;20100;-73
2022/08/23 13:14:00;;;;;;;6.38;1.13;;;;;;;;;;5014158;28;20045;-75
2022/08/23 13:16:42;;;;;;;4.00;1.20;;;;;;;;;;4997453;28;20053;-75
2022/08/23 13:19:16;;;;;;;3.22;1.05;;;;;;;;;;5016833;28;20064;-76
2022/08/23 13:21:42;;;;;;;2.75;1.20;;;;;;;;;;5015943;28;20065;-75
2022/08/23 13:24:41;;;;;;;5.57;1.30;;;;;;;;;;5013723;28;20582;-75
2022/08/23 13:27:15;;;;;;;5.30;1.35;;;;;;;;;;5014537;28;20060;-74
2022/08/23 13:30:09;;;;;;;4.38;1.25;;;;;;;;;;5014275;28;20261;-76
2022/08/23 13:32:47;;;;;;;5.43;1.20;;;;;;;;;;4993903;28;20058;-76
2022/08/23 13:35:48;;;;;;;8.07;1.50;;;;;;;;;;4994507;28;20058;-79
2022/08/23 13:38:14;;;;;;;4.50;1.33;;;;;;;;;;4994489;28;20504;-76
2022/08/23 13:40:49;;;;;;;7.18;1.50;;;;;;;;;;4996380;28;20053;-76
2022/08/23 13:43:23;;;;;;;3.63;1.40;;;;;;;;;;4995277;28;20089;-74
2022/08/23 13:45:54;;;;;;;5.60;1.45;;;;;;;;;;4995149;28;20462;-76
2022/08/23 13:48:32;;;;;;;5.72;1.55;;;;;;;;;;4995314;28;20073;-76
2022/08/23 13:51:24;;;;;;;7.32;1.73;;;;;;;;;;4995622;28;20043;-76
2022/08/23 13:53:51;;;;;;;5.53;1.60;;;;;;;;;;4994019;28;20089;-74
2022/08/23 13:56:17;;;;;;;6.13;1.90;;;;;;;;;;4995868;28;20470;-75
2022/08/23 13:58:59;;;;;;;6.43;1.52;;;;;;;;;;5012456;28;20045;-74
2022/08/23 14:01:25;;;;;;;11.20;1.80;;;;;;;;;;5013732;28;20145;-74
2022/08/23 14:03:52;;;;;;;7.63;1.98;;;;;;;;;;4997538;28;20100;-75
2022/08/23 14:06:18;;;;;;;9.48;1.98;;;;;;;;;;4993248;28;20134;-78
2022/08/23 14:08:44;;;;;;;9.07;2.13;;;;;;;;;;4992663;28;20052;-74
2022/08/23 14:11:14;;;;;;;8.95;2.00;;;;;;;;;;4992378;28;20050;-76
2022/08/23 14:13:44;;;;;;;6.47;1.60;;;;;;;;;;4993059;28;20499;-74
2022/08/23 14:16:16;;;;;;;7.00;1.90;;;;;;;;;;5005100;28;20649;-77
2022/08/23 14:18:42;;;;;;;15.40;2.33;;;;;;;;;;5011960;28;20438;-77
2022/08/23 14:21:08;;;;;;;14.00;2.22;;;;;;;;;;5010968;28;20104;-75
2022/08/23 14:23:34;;;;;;;9.00;1.75;;;;;;;;;;4997884;28;20073;-77
2022/08/23 14:26:00;;;;;;;12.73;1.90;;;;;;;;;;5011784;28;20092;-73
2022/08/23 14:28:28;;;;;;;8.90;1.80;;;;;;;;;;5012080;28;20054;-72
2022/08/23 14:30:55;;;;;;;7.60;1.80;;;;;;;;;;5012221;28;20106;-75
2022/08/23 14:33:22;;;;;;;14.43;1.83;;;;;;;;;;5011645;28;20042;-75
2022/08/23 14:35:48;;;;;;;12.45;2.17;;;;;;;;;;5011509;28;20042;-74
2022/08/23 14:38:14;;;;;;;5.20;1.63;;;;;;;;;;4990379;28;20484;-74
2022/08/23 14:40:53;;;;;;;9.77;2.00;;;;;;;;;;4991405;28;20153;-74
2022/08/23 14:43:21;;;;;;;14.00;2.03;;;;;;;;;;4992772;28;20181;-74
2022/08/23 14:45:47;;;;;;;10.20;2.00;;;;;;;;;;4992721;28;20415;-73
2022/08/23 14:48:13;;;;;;;8.00;1.83;;;;;;;;;;4993576;28;20126;-77
2022/08/23 14:50:39;;;;;;;8.88;2.30;;;;;;;;;;4977957;28;20156;-75
2022/08/23 14:53:06;;;;;;;8.32;1.63;;;;;;;;;;4995526;28;20046;-75
2022/08/23 14:55:32;;;;;;;10.20;1.88;;;;;;;;;;4994597;28;20114;-75
2022/08/23 14:57:58;;;;;;;10.15;1.80;;;;;;;;;;5005259;28;20044;-74
2022/08/23 15:00:25;;;;;;;8.15;1.85;;;;;;;;;;5014065;28;20121;-75
2022/08/23 15:02:51;;;;;;;10.57;2.55;;;;;;;;;;5015342;28;20168;-75
2022/08/23 15:05:18;;;;;;;10.38;1.90;;;;;;;;;;5011801;28;20057;-76
2022/08/23 15:07:44;;;;;;;9.27;2.22;;;;;;;;;;5012187;28;20041;-75
2022/08/23 15:10:12;;;;;;;12.18;1.98;;;;;;;;;;5011386;28;20056;-77
2022/08/23 15:12:38;;;;;;;13.50;2.28;;;;;;;;;;5010763;28;20050;-73
2022/08/23 15:15:09;;;;;;;10.82;2.70;;;;;;;;;;5010778;28;20057;-77